• Join FlightAware (Why Join?)
  • Login
  • US Flag 
04:36AM EDT


 

Airport Tracker/Info


-or-


 

Live Flight TrackerFlight Track Log ✈ N717AN ✈ 19-Jun-2013 ✈ SBGR / GRU - KJFK

Flight Track Log - Related Links

Times and Time Zones

All times are in EDT time to prevent confusion due to time zone crossing. See the N717AN flight status page for this flight to view local times or setup timezone preferences in your user account.

Time Position Orientation Groundspeed Altitude Reporting Facility
EDT Latitude Longitude Course Direction KTS MPH feet Rate Location/Type
08:14PM -23.4290 -46.4780 North 4 5  Level FlightAware
08:15PM -23.4300 -46.4790 223° Southwest 4 5 240 Level FlightAware
08:17PM -23.2202 -46.5915 334° Northwest  Level FlightAware Approximate
08:18PM -23.1107 -46.6500 334° Northwest  Level FlightAware Approximate
08:19PM -23.0012 -46.7085 334° Northwest  Level FlightAware Approximate
08:19PM -23.4300 -46.4780 334° Northwest 5 6  Level FlightAware
08:20PM -23.4310 -46.4780 180° South 6 7 360 Level FlightAware
08:21PM -23.4310 -46.4790 270° West 8 9 420 Level FlightAware
08:21PM -23.4320 -46.4800 223° Southwest 8 9 480 Level FlightAware
08:22PM -23.4320 -46.4810 270° West 7 8 480 Level FlightAware
08:22PM -23.4320 -46.4820 270° West 7 8 540 Level FlightAware
08:23PM -23.4320 -46.4830 270° West 5 6 600 Level FlightAware
08:23PM -23.4330 -46.4840 223° Southwest 3 3 720 Level FlightAware
08:25PM -23.4340 -46.4830 137° Southeast 7 8 840 Level FlightAware
08:26PM -23.4340 -46.4820 90° East 2 2 1,320 Level FlightAware
08:27PM -23.4330 -46.4770 78° East 88 101 2,100 Level FlightAware
08:27PM -23.4280 -46.4620 70° East 3,780 Level FlightAware
08:28PM -23.4200 -46.4320 74° East 189 217 3,500 4,200 Climbing FlightAware
08:28PM -23.4120 -46.4040 73° East 213 245 4,200 1,080 Climbing FlightAware
08:28PM -23.4070 -46.3880 71° East 236 272 4,300 1,080 Climbing FlightAware
08:29PM -23.3940 -46.3430 73° East 273 314 5,200 1,860 Climbing FlightAware
08:29PM -23.3800 -46.2970 72° East 286 329 6,500 2,520 Climbing FlightAware
08:30PM -23.3680 -46.2630 69° East 294 338 7,600 2,400 Climbing FlightAware
08:30PM -23.3540 -46.2460 48° Northeast 296 341 8,100 2,160 Climbing FlightAware
08:30PM -23.3420 -46.2400 25° Northeast 293 337 8,500 2,520 Climbing FlightAware
08:31PM -23.3010 -46.2280 15° North 299 344 9,800 1,980 Climbing FlightAware
08:32PM -23.2390 -46.2120 13° North 332 382 11,000 1,620 Climbing FlightAware
08:32PM -23.1750 -46.1950 14° North 367 422 12,200 2,460 Climbing FlightAware
08:33PM -23.0840 -46.1740 12° North 368 423 14,900 2,760 Climbing FlightAware
08:34PM -23.0400 -46.1790 354° North 373 429 15,900 2,400 Climbing FlightAware
08:34PM -22.9540 -46.1940 351° North 376 433 17,900 1,440 Climbing FlightAware
08:35PM -22.8830 -46.2100 348° North 394 453 18,200 1,920 Climbing FlightAware
08:36PM -22.8060 -46.2230 351° North 403 464 20,500 2,580 Climbing FlightAware
08:36PM -22.7210 -46.2370 351° North 409 471 21,800 1,200 Climbing FlightAware
08:37PM -22.6400 -46.2500 352° North 424 488 22,300 1,860 Climbing FlightAware
08:38PM -22.5610 -46.2630 351° North 439 505 24,300 2,520 Climbing FlightAware
08:39PM -22.4680 -46.2800 350° North 441 507 25,800 1,800 Climbing FlightAware
08:39PM -22.3870 -46.2940 351° North 440 506 26,900 1,560 Climbing FlightAware
08:40PM -22.3140 -46.3060 351° North 454 522 27,800 1,500 Climbing FlightAware
08:40PM -22.2280 -46.3200 351° North 452 520 28,800 1,500 Climbing FlightAware
08:41PM -22.1350 -46.3360 351° North 458 527 29,900 1,320 Climbing FlightAware
08:42PM -22.0490 -46.3520 350° North 473 544 30,700 1,020 Climbing FlightAware
08:43PM -21.9610 -46.3690 350° North 486 559 31,300 960 Climbing FlightAware
08:43PM -21.8700 -46.3850 351° North 487 560 32,100 1,080 Climbing FlightAware
08:44PM -21.7680 -46.4010 352° North 502 578 32,900 660 Climbing FlightAware
08:45PM -21.6930 -46.4130 352° North 500 575 33,000 60 Climbing FlightAware
08:45PM -21.5660 -46.4340 351° North 501 577 33,000  Level FlightAware
08:46PM -21.4700 -46.4500 351° North 503 579 33,000  Level FlightAware
08:47PM -21.3680 -46.4670 351° North 503 579 33,000  Level FlightAware
08:48PM -21.2690 -46.4830 351° North 504 580 33,000  Level FlightAware
08:48PM -21.1770 -46.4980 351° North 504 580 33,000  Level FlightAware
08:49PM -21.0760 -46.5140 352° North 504 580 33,000  Level FlightAware
08:50PM -20.9770 -46.5300 351° North 505 581 33,000  Level FlightAware
08:50PM -20.8860 -46.5450 351° North 508 585 33,000  Level FlightAware
08:51PM -20.7780 -46.5630 351° North 508 585 33,000  Level FlightAware
08:52PM -20.6850 -46.5780 351° North 509 586 33,000  Level FlightAware
08:52PM -20.5920 -46.5930 351° North 508 585 33,000  Level FlightAware
08:53PM -20.4930 -46.6090 351° North 508 585 33,000  Level FlightAware
08:54PM -20.3970 -46.6270 350° North 508 585 33,000  Level FlightAware
08:55PM -20.2890 -46.6470 350° North 511 588 33,000  Level FlightAware
08:55PM -20.2090 -46.6610 351° North 512 589 33,000  Level FlightAware
08:56PM -20.0950 -46.6820 350° North 513 590 33,000  Level FlightAware
08:57PM -19.9970 -46.7000 350° North 512 589 33,000  Level FlightAware
08:57PM -19.9050 -46.7160 351° North 513 590 33,000  Level FlightAware
08:58PM -19.7990 -46.7360 350° North 516 594 33,000  Level FlightAware
08:59PM -19.7040 -46.7530 350° North 517 595 33,000  Level FlightAware
08:59PM -19.5990 -46.7720 350° North 516 594 33,000  Level FlightAware
09:00PM -19.5050 -46.7880 351° North 517 595 33,000  Level FlightAware
09:01PM -19.4110 -46.8050 350° North 516 594 33,000  Level FlightAware
09:02PM -19.3020 -46.8250 350° North 515 593 33,000  Level FlightAware
09:02PM -19.2050 -46.8420 351° North 515 593 33,000  Level FlightAware
09:03PM -19.1080 -46.8570 352° North 517 595 33,000  Level FlightAware
09:04PM -19.0150 -46.8720 351° North 516 594 33,000  Level FlightAware
09:04PM -18.9140 -46.8870 352° North 515 593 33,000  Level FlightAware
09:05PM -18.7730 -46.9090 352° North 512 589 33,000  Level FlightAware
09:06PM -18.6530 -46.9270 352° North 512 589 33,000  Level FlightAware
09:07PM -18.5790 -46.9380 352° North 512 589 33,000  Level FlightAware
09:07PM -18.4670 -46.9500 354° North 512 589 33,000  Level FlightAware
09:08PM -18.3530 -46.9660 352° North 510 587 33,000  Level FlightAware
09:09PM -18.2630 -46.9780 353° North 510 587 33,000  Level FlightAware
09:10PM -18.1440 -46.9940 353° North 511 588 33,000  Level FlightAware
09:10PM -18.0560 -47.0070 352° North 509 586 33,000  Level FlightAware
09:11PM -17.9260 -47.0550 341° North 502 578 33,000 540 Level FlightAware
09:12PM -17.8360 -47.1050 332° Northwest 499 574 34,000 720 Climbing FlightAware
09:13PM -17.7630 -47.1450 332° Northwest 495 570 34,000  Level FlightAware
09:13PM -17.6700 -47.1960 332° Northwest 494 568 34,000  Level FlightAware
09:14PM -17.5940 -47.2380 332° Northwest 495 570 34,000  Level FlightAware
09:15PM -17.4780 -47.3000 333° Northwest 495 570 34,000  Level FlightAware
09:16PM -17.3970 -47.3420 334° Northwest 495 570 34,000  Level FlightAware
09:16PM -17.2980 -47.3940 333° Northwest 495 570 34,000  Level FlightAware
09:17PM -17.2090 -47.4400 334° Northwest 492 566 34,000  Level FlightAware
09:18PM -17.1480 -47.4720 333° Northwest 492 566 34,000  Level FlightAware
09:19PM -17.0220 -47.5370 334° Northwest 491 565 34,000  Level FlightAware
09:20PM -16.9310 -47.5850 333° Northwest 491 565 34,000  Level FlightAware
09:20PM -16.8390 -47.6320 334° Northwest 490 564 34,000  Level FlightAware
09:21PM -16.7710 -47.6670 334° Northwest 492 566 34,000  Level FlightAware
09:22PM -16.6800 -47.7150 333° Northwest 492 566 34,000  Level FlightAware
09:22PM -16.5770 -47.7680 334° Northwest 494 568 34,000  Level FlightAware
09:23PM -16.5030 -47.8060 334° Northwest 495 570 34,000  Level FlightAware
09:24PM -16.4180 -47.8500 334° Northwest 493 567 34,000  Level FlightAware
09:24PM -16.3240 -47.8980 334° Northwest 493 567 34,000  Level FlightAware
09:25PM -16.2370 -47.9430 334° Northwest 493 567 34,000  Level FlightAware
09:26PM -16.1580 -47.9840 334° Northwest 493 567 34,000  Level FlightAware
09:27PM -16.0650 -48.0320 334° Northwest 492 566 34,000  Level FlightAware
09:27PM -15.9760 -48.0780 334° Northwest 492 566 34,000  Level FlightAware
09:28PM -15.8930 -48.1200 334° Northwest 492 566 34,000  Level FlightAware
09:29PM -15.8080 -48.1640 334° Northwest 493 567 34,000  Level FlightAware
09:29PM -15.7260 -48.2060 334° Northwest 495 570 34,000  Level FlightAware
09:30PM -15.6090 -48.2660 334° Northwest 493 567 34,000  Level FlightAware
09:31PM -15.5250 -48.3090 334° Northwest 492 566 34,000  Level FlightAware
09:32PM -15.4070 -48.3690 334° Northwest 491 565 34,000  Level FlightAware
09:33PM -15.3160 -48.4150 334° Northwest 490 564 34,000  Level FlightAware
09:33PM -15.2450 -48.4510 334° Northwest 489 563 34,000  Level FlightAware
09:34PM -15.1530 -48.4980 334° Northwest 487 560 34,000  Level FlightAware
09:35PM -15.0660 -48.5420 334° Northwest 487 560 34,000  Level FlightAware
09:36PM -14.9620 -48.5970 333° Northwest 487 560 34,000  Level FlightAware
09:36PM -14.8980 -48.6280 335° Northwest 488 562 34,000  Level FlightAware
09:37PM -14.8300 -48.6620 334° Northwest 487 560 34,000  Level FlightAware
09:37PM -14.7210 -48.7170 334° Northwest 488 562 34,000  Level FlightAware
09:38PM -14.6710 -48.7430 333° Northwest 487 560 34,000  Level FlightAware
09:39PM -14.6020 -48.7780 334° Northwest 488 562 34,000  Level FlightAware
09:40PM -14.5170 -48.8230 333° Northwest 488 562 34,000  Level FlightAware
09:41PM -14.4190 -48.8750 333° Northwest 488 562 34,000  Level FlightAware
09:41PM -14.3560 -48.9080 333° Northwest 488 562 34,000  Level FlightAware
09:42PM -14.2930 -48.9410 333° Northwest 488 562 34,000  Level FlightAware
09:43PM -14.2090 -48.9850 333° Northwest 488 562 34,000  Level FlightAware
09:43PM -14.1490 -49.0170 333° Northwest 488 562 34,000  Level FlightAware
09:44PM -14.0670 -49.0600 333° Northwest 488 562 34,000  Level FlightAware
09:45PM -13.9660 -49.1130 333° Northwest 488 562 34,000  Level FlightAware
09:46PM -13.9030 -49.1460 333° Northwest 488 562 34,000  Level FlightAware
09:46PM -13.8400 -49.1790 333° Northwest 488 562 34,000  Level FlightAware
09:47PM -13.7580 -49.2220 333° Northwest 488 562 34,000  Level FlightAware
09:48PM -13.6790 -49.2630 333° Northwest 488 562 34,000  Level FlightAware
09:50PM -13.4719 -49.3472 338° Northwest  Level Estimated
09:51PM -13.3524 -49.3957 338° Northwest  Level Estimated
09:52PM -13.2329 -49.4442 338° Northwest  Level Estimated
09:53PM -13.1134 -49.4926 338° Northwest  Level Estimated
09:54PM -12.9939 -49.5410 338° Northwest  Level Estimated
09:55PM -12.8743 -49.5894 338° Northwest  Level Estimated
09:56PM -12.7548 -49.6377 338° Northwest  Level Estimated
09:57PM -12.6352 -49.6859 339° North  Level Estimated
09:58PM -12.5157 -49.7341 339° North  Level Estimated
09:59PM -12.3961 -49.7822 339° North  Level Estimated
10:00PM -12.2765 -49.8304 339° North  Level Estimated
10:01PM -12.1569 -49.8784 339° North  Level Estimated
10:02PM -12.0374 -49.9264 339° North  Level Estimated
10:03PM -11.9178 -49.9744 339° North  Level Estimated
10:04PM -11.7982 -50.0224 339° North  Level Estimated
10:05PM -11.6785 -50.0703 339° North  Level Estimated
10:06PM -11.5589 -50.1181 339° North  Level Estimated
10:07PM -11.4393 -50.1659 339° North  Level Estimated
10:07PM -11.1640 -50.4880 339° North 487 560 34,000  Level FlightAware
10:08PM -11.0780 -50.5310 334° Northwest 487 560 34,000  Level FlightAware
10:08PM -11.0160 -50.5620 334° Northwest 487 560 34,000  Level FlightAware
10:11PM -10.7304 -50.6745 339° North  Level Estimated
10:12PM -10.6106 -50.7217 339° North  Level Estimated
10:13PM -10.4908 -50.7688 339° North  Level Estimated
10:14PM -10.3709 -50.8159 339° North  Level Estimated
10:15PM -10.2511 -50.8629 339° North  Level Estimated
10:16PM -10.1312 -50.9099 339° North  Level Estimated
10:17PM -10.0113 -50.9569 339° North  Level Estimated
10:18PM -9.8915 -51.0038 339° North  Level Estimated
10:19PM -9.7716 -51.0507 339° North  Level Estimated
10:20PM -9.6517 -51.0976 339° North  Level Estimated
10:21PM -9.5318 -51.1445 339° North  Level Estimated
10:22PM -9.4119 -51.1912 339° North  Level Estimated
10:23PM -9.2920 -51.2380 339° North  Level Estimated
10:24PM -9.1721 -51.2848 339° North  Level Estimated
10:25PM -9.0522 -51.3315 339° North  Level Estimated
10:26PM -8.9322 -51.3782 339° North  Level Estimated
10:27PM -8.8123 -51.4248 339° North  Level Estimated
10:28PM -8.6924 -51.4714 339° North  Level Estimated
10:29PM -8.5724 -51.5180 339° North  Level Estimated
10:30PM -8.4525 -51.5646 339° North  Level Estimated
10:31PM -8.3325 -51.6111 339° North  Level Estimated
10:32PM -8.2126 -51.6576 339° North  Level Estimated
10:33PM -8.0926 -51.7041 339° North  Level Estimated
10:34PM -7.9726 -51.7505 339° North  Level Estimated
10:35PM -7.8527 -51.7969 339° North  Level Estimated
10:36PM -7.7327 -51.8433 339° North  Level Estimated
10:37PM -7.6127 -51.8897 339° North  Level Estimated
10:38PM -7.4927 -51.9360 339° North  Level Estimated
10:39PM -7.3727 -51.9823 339° North  Level Estimated
10:40PM -7.2527 -52.0286 339° North  Level Estimated
10:41PM -7.1327 -52.0749 339° North  Level Estimated
10:42PM -7.0127 -52.1211 339° North  Level Estimated
10:43PM -6.8927 -52.1673 339° North  Level Estimated
10:44PM -6.7727 -52.2135 339° North  Level Estimated
10:45PM -6.6527 -52.2597 339° North  Level Estimated
10:46PM -6.5326 -52.3058 339° North  Level Estimated
10:47PM -6.4126 -52.3520 339° North  Level Estimated
10:48PM -6.2926 -52.3981 339° North  Level Estimated
10:49PM -6.1726 -52.4441 339° North  Level Estimated
10:50PM -6.0525 -52.4902 339° North  Level Estimated
10:51PM -5.9325 -52.5362 339° North  Level Estimated
10:52PM -5.8124 -52.5823 339° North  Level Estimated
10:53PM -5.6924 -52.6283 339° North  Level Estimated
10:54PM -5.5723 -52.6742 339° North  Level Estimated
10:55PM -5.4523 -52.7202 339° North  Level Estimated
10:56PM -5.3322 -52.7661 339° North  Level Estimated
10:57PM -5.2121 -52.8121 339° North  Level Estimated
10:58PM -5.0921 -52.8580 339° North  Level Estimated
10:59PM -4.9720 -52.9039 339° North  Level Estimated
11:00PM -4.8519 -52.9497 339° North  Level Estimated
11:01PM -4.7318 -52.9956 339° North  Level Estimated
11:02PM -4.6117 -53.0414 339° North  Level Estimated
11:03PM -4.4917 -53.0873 339° North  Level Estimated
11:04PM -4.3716 -53.1331 339° North  Level Estimated
11:05PM -4.2515 -53.1789 339° North  Level Estimated
11:06PM -4.1314 -53.2247 339° North  Level Estimated
11:07PM -4.0113 -53.2704 339° North  Level Estimated
11:08PM -3.8912 -53.3162 339° North  Level Estimated
11:09PM -3.7711 -53.3619 339° North  Level Estimated
11:10PM -3.6510 -53.4076 339° North  Level Estimated
11:11PM -3.5309 -53.4534 339° North  Level Estimated
11:12PM -3.4108 -53.4991 339° North  Level Estimated
11:13PM -3.2906 -53.5448 339° North  Level Estimated
11:14PM -3.1705 -53.5904 339° North  Level Estimated
11:15PM -3.0504 -53.6361 339° North  Level Estimated
11:16PM -2.9303 -53.6818 339° North  Level Estimated
11:17PM -2.8102 -53.7274 339° North  Level Estimated
11:18PM -2.6901 -53.7730 339° North  Level Estimated
11:19PM -2.5700 -53.8187 339° North  Level Estimated
11:20PM -2.4501 -53.8642 339° North  Level Estimated
11:21PM -2.3301 -53.9098 339° North  Level Estimated
11:22PM -2.2102 -53.9553 339° North  Level Estimated
11:23PM -2.0903 -54.0008 339° North  Level Estimated
11:24PM -1.9704 -54.0463 339° North  Level Estimated
11:25PM -1.8505 -54.0918 339° North  Level Estimated
11:26PM -1.7306 -54.1373 339° North  Level Estimated
11:27PM -1.6107 -54.1828 339° North  Level Estimated
11:28PM -1.4908 -54.2283 339° North  Level Estimated
11:29PM -1.3708 -54.2738 339° North  Level Estimated
11:30PM -1.2509 -54.3192 339° North  Level Estimated
11:31PM -1.1310 -54.3647 339° North  Level Estimated
11:32PM -1.0111 -54.4102 339° North  Level Estimated
11:33PM -0.8912 -54.4557 339° North  Level Estimated
11:34PM -0.7713 -54.5011 339° North  Level Estimated
11:35PM -0.6513 -54.5466 339° North  Level Estimated
11:36PM -0.5314 -54.5920 339° North  Level Estimated
11:37PM -0.4115 -54.6375 339° North  Level Estimated
11:38PM -0.2916 -54.6830 339° North  Level Estimated
11:39PM -0.1717 -54.7284 339° North  Level Estimated
11:40PM -0.0517 -54.7739 339° North  Level Estimated
11:41PM 0.0682 -54.8193 339° North  Level Estimated
11:42PM 0.1881 -54.8648 339° North  Level Estimated
11:43PM 0.3080 -54.9102 339° North  Level Estimated
11:44PM 0.4279 -54.9557 339° North  Level Estimated
11:45PM 0.5479 -55.0011 339° North  Level Estimated
11:46PM 0.6678 -55.0466 339° North  Level Estimated
11:47PM 0.7877 -55.0920 339° North  Level Estimated
11:48PM 0.9076 -55.1375 339° North  Level Estimated
11:49PM 1.0275 -55.1830 339° North  Level Estimated
11:50PM 1.1475 -55.2285 339° North  Level Estimated
11:51PM 1.2674 -55.2739 339° North  Level Estimated
11:52PM 1.3873 -55.3194 339° North  Level Estimated
11:53PM 1.5072 -55.3649 339° North  Level Estimated
11:54PM 1.6271 -55.4104 339° North  Level Estimated
11:55PM 1.7471 -55.4559 339° North  Level Estimated
11:56PM 1.8670 -55.5014 339° North  Level Estimated
11:57PM 1.9869 -55.5469 339° North  Level Estimated
11:58PM 2.1068 -55.5924 339° North  Level Estimated
11:59PM 2.2267 -55.6379 339° North  Level Estimated
12:00AM 2.3466 -55.6834 339° North  Level Estimated
12:01AM 2.4665 -55.7290 339° North  Level Estimated
12:02AM 2.5864 -55.7745 339° North  Level Estimated
12:03AM 2.7063 -55.8200 339° North  Level Estimated
12:04AM 2.8262 -55.8656 339° North  Level Estimated
12:05AM 2.9461 -55.9112 339° North  Level Estimated
12:06AM 3.0660 -55.9568 339° North  Level Estimated
12:07AM 3.1859 -56.0023 339° North  Level Estimated
12:08AM 3.3058 -56.0480 339° North  Level Estimated
12:09AM 3.4257 -56.0936 339° North  Level Estimated
12:10AM 3.5456 -56.1392 339° North  Level Estimated
12:11AM 3.6655 -56.1848 339° North  Level Estimated
12:12AM 3.7853 -56.2305 339° North  Level Estimated
12:13AM 3.9052 -56.2761 339° North  Level Estimated
12:14AM 4.0251 -56.3218 339° North  Level Estimated
12:15AM 4.1450 -56.3675 339° North  Level Estimated
12:16AM 4.2649 -56.4132 339° North  Level Estimated
12:17AM 4.3847 -56.4589 339° North  Level Estimated
12:18AM 4.5046 -56.5046 339° North  Level Estimated
12:19AM 4.6245 -56.5504 339° North  Level Estimated
12:20AM 4.7443 -56.5961 339° North  Level Estimated
12:21AM 4.8642 -56.6419 339° North  Level Estimated
12:22AM 4.9840 -56.6877 339° North  Level Estimated
12:23AM 5.1039 -56.7335 339° North  Level Estimated
12:24AM 5.2237 -56.7793 339° North  Level Estimated
12:25AM 5.3436 -56.8252 339° North  Level Estimated
12:26AM 5.4634 -56.8710 339° North  Level Estimated
12:27AM 5.5833 -56.9169 339° North  Level Estimated
12:28AM 5.7031 -56.9628 339° North  Level Estimated
12:29AM 5.8229 -57.0087 339° North  Level Estimated
12:30AM 5.9428 -57.0547 339° North  Level Estimated
12:31AM 6.0626 -57.1006 339° North  Level Estimated
12:32AM 6.1824 -57.1466 339° North  Level Estimated
12:33AM 6.3022 -57.1926 339° North  Level Estimated
12:34AM 6.4220 -57.2386 339° North  Level Estimated
12:35AM 6.5419 -57.2847 339° North  Level Estimated
12:36AM 6.6617 -57.3307 339° North  Level Estimated
12:37AM 6.7815 -57.3768 339° North  Level Estimated
12:38AM 6.9011 -57.4228 339° North  Level Estimated
12:39AM 7.0206 -57.4689 339° North  Level Estimated
12:40AM 7.1402 -57.5150 339° North  Level Estimated
12:41AM 7.2597 -57.5611 339° North  Level Estimated
12:42AM 7.3793 -57.6072 339° North  Level Estimated
12:43AM 7.4989 -57.6533 339° North  Level Estimated
12:44AM 7.6184 -57.6995 339° North  Level Estimated
12:45AM 7.7380 -57.7457 339° North  Level Estimated
12:46AM 7.8575 -57.7919 339° North  Level Estimated
12:47AM 7.9770 -57.8382 339° North  Level Estimated
12:48AM 8.0966 -57.8844 339° North  Level Estimated
12:49AM 8.2161 -57.9307 339° North  Level Estimated
12:50AM 8.3356 -57.9771 339° North  Level Estimated
12:51AM 8.4551 -58.0234 339° North  Level Estimated
12:52AM 8.5746 -58.0698 339° North  Level Estimated
12:53AM 8.6941 -58.1162 339° North  Level Estimated
12:54AM 8.8137 -58.1627 339° North  Level Estimated
12:55AM 8.9331 -58.2092 339° North  Level Estimated
12:56AM 9.0526 -58.2557 339° North  Level Estimated
12:57AM 9.1721 -58.3022 339° North  Level Estimated
12:58AM 9.2916 -58.3488 339° North  Level Estimated
12:59AM 9.4110 -58.3954 339° North  Level Estimated
01:00AM 9.5305 -58.4420 339° North  Level Estimated
01:01AM 9.6500 -58.4887 339° North  Level Estimated
01:02AM 9.7694 -58.5354 339° North  Level Estimated
01:03AM 9.8889 -58.5821 339° North  Level Estimated
01:04AM 10.0083 -58.6289 339° North  Level Estimated
01:05AM 10.1277 -58.6757 339° North  Level Estimated
01:06AM 10.2472 -58.7225 339° North  Level Estimated
01:07AM 10.3666 -58.7694 339° North  Level Estimated
01:08AM 10.4860 -58.8163 339° North  Level Estimated
01:09AM 10.6054 -58.8633 339° North  Level Estimated
01:10AM 10.7248 -58.9102 339° North  Level Estimated
01:11AM 10.8442 -58.9572 339° North  Level Estimated
01:12AM 10.9635 -59.0043 339° North  Level Estimated
01:13AM 11.0829 -59.0514 339° North  Level Estimated
01:14AM 11.2023 -59.0985 339° North  Level Estimated
01:15AM 11.3217 -59.1457 339° North  Level Estimated
01:16AM 11.4410 -59.1929 339° North  Level Estimated
01:17AM 11.5604 -59.2402 339° North  Level Estimated
01:18AM 11.6797 -59.2874 339° North  Level Estimated
01:19AM 11.7990 -59.3348 339° North  Level Estimated
01:20AM 11.9184 -59.3821 339° North  Level Estimated
01:21AM 12.0377 -59.4296 339° North  Level Estimated
01:22AM 12.1570 -59.4770 339° North  Level Estimated
01:23AM 12.2763 -59.5245 339° North  Level Estimated
01:24AM 12.3956 -59.5720 339° North  Level Estimated
01:25AM 12.5148 -59.6196 339° North  Level Estimated
01:26AM 12.6341 -59.6673 339° North  Level Estimated
01:27AM 12.7534 -59.7149 339° North  Level Estimated
01:28AM 12.8726 -59.7626 339° North  Level Estimated
01:29AM 12.9919 -59.8104 339° North  Level Estimated
01:30AM 13.1111 -59.8582 339° North  Level Estimated
01:31AM 13.2304 -59.9061 339° North  Level Estimated
01:32AM 13.3496 -59.9540 339° North  Level Estimated
01:33AM 13.4688 -60.0019 339° North  Level Estimated
01:34AM 13.5880 -60.0499 339° North  Level Estimated
01:35AM 13.7072 -60.0980 339° North  Level Estimated
01:36AM 13.8264 -60.1461 339° North  Level Estimated
01:37AM 13.9455 -60.1942 339° North  Level Estimated
01:38AM 14.0647 -60.2424 339° North  Level Estimated
01:39AM 14.1841 -60.2907 339° North  Level Estimated
01:40AM 14.3034 -60.3391 339° North  Level Estimated
01:41AM 14.4228 -60.3875 339° North  Level Estimated
01:42AM 14.5421 -60.4360 339° North  Level Estimated
01:43AM 14.6615 -60.4846 339° North  Level Estimated
01:44AM 14.7808 -60.5332 339° North  Level Estimated
01:45AM 14.9001 -60.5818 338° Northwest  Level Estimated
01:46AM 15.0194 -60.6305 338° Northwest  Level Estimated
01:47AM 15.1387 -60.6793 338° Northwest  Level Estimated
01:48AM 15.2580 -60.7281 338° Northwest  Level Estimated
01:49AM 15.3772 -60.7769 338° Northwest  Level Estimated
01:50AM 15.4963 -60.8258 338° Northwest  Level Estimated
01:51AM 15.6153 -60.8746 338° Northwest  Level Estimated
01:52AM 15.7343 -60.9236 338° Northwest  Level Estimated
01:53AM 15.8533 -60.9726 338° Northwest  Level Estimated
01:54AM 15.9723 -61.0216 338° Northwest  Level Estimated
01:55AM 16.0913 -61.0708 338° Northwest  Level Estimated
01:56AM 16.2103 -61.1199 338° Northwest  Level Estimated
01:57AM 16.3293 -61.1692 338° Northwest  Level Estimated
01:58AM 16.4482 -61.2185 338° Northwest  Level Estimated
01:59AM 16.5672 -61.2678 338° Northwest  Level Estimated
02:00AM 16.6861 -61.3173 338° Northwest  Level Estimated
02:01AM 16.8050 -61.3667 338° Northwest  Level Estimated
02:02AM 16.9239 -61.4163 338° Northwest  Level Estimated
02:03AM 17.0428 -61.4659 338° Northwest  Level Estimated
02:04AM 17.1617 -61.5156 338° Northwest  Level Estimated
02:05AM 17.2806 -61.5653 338° Northwest  Level Estimated
02:06AM 17.3995 -61.6151 338° Northwest  Level Estimated
02:06AM 16.5420 -66.0540 338° Northwest 486 559 36,000  Level FlightAware
02:07AM 17.5231 -61.6670 338° Northwest  Level Estimated
02:07AM 16.6720 -66.1160 335° Northwest 486 559 36,000  Level FlightAware
02:08AM 16.7700 -66.1600 337° Northwest 490 564 36,000  Level FlightAware
02:09AM 16.8610 -66.2030 336° Northwest 489 563 36,000  Level FlightAware
02:09AM 16.9520 -66.2460 336° Northwest 491 565 36,000  Level FlightAware
02:11AM 17.0550 -66.2940 336° Northwest 491 565 36,000  Level FlightAware
02:12AM 17.2700 -66.3950 336° Northwest 491 565 36,000  Level FlightAware
02:13AM 17.3520 -66.4330 336° Northwest 492 566 36,000  Level FlightAware
02:13AM 17.4440 -66.4760 336° Northwest 492 566 36,000  Level FlightAware
02:14AM 17.5280 -66.5160 336° Northwest 494 568 36,000  Level FlightAware
02:15AM 17.5860 -66.5440 335° Northwest 494 568 36,000  Level FlightAware
02:16AM 17.7380 -66.6150 336° Northwest 497 572 36,000  Level FlightAware
02:16AM 17.8280 -66.6580 336° Northwest 498 573 36,000  Level FlightAware
02:17AM 17.9180 -66.7000 336° Northwest 497 572 36,000  Level FlightAware
02:18AM 18.0010 -66.7400 335° Northwest 496 571 36,000  Level FlightAware
02:18AM 18.0910 -66.7820 336° Northwest 498 573 36,000  Level FlightAware
02:19AM 18.1820 -66.8250 336° Northwest 499 574 36,000  Level FlightAware
02:20AM 18.2650 -66.8650 335° Northwest 499 574 36,000  Level FlightAware
02:21AM 18.3570 -66.9080 336° Northwest 499 574 36,000  Level FlightAware
02:21AM 18.4390 -66.9480 335° Northwest 498 573 36,000  Level FlightAware
02:22AM 18.5300 -66.9910 336° Northwest 499 574 36,000  Level FlightAware
02:23AM 18.6160 -67.0320 336° Northwest 499 574 36,000  Level FlightAware
02:23AM 18.7070 -67.0760 335° Northwest 500 575 36,000  Level FlightAware
02:24AM 18.7980 -67.1190 336° Northwest 501 577 36,000  Level FlightAware
02:25AM 18.8850 -67.1610 335° Northwest 499 574 36,000  Level FlightAware
02:25AM 18.9750 -67.2040 336° Northwest 498 573 36,000  Level FlightAware
02:26AM 19.0560 -67.2430 336° Northwest 499 574 36,000  Level FlightAware
02:27AM 19.1570 -67.2920 335° Northwest 501 577 36,000  Level FlightAware
02:27AM 19.2350 -67.3290 336° Northwest 502 578 36,000  Level FlightAware
02:28AM 19.3280 -67.3740 335° Northwest 504 580 36,000  Level FlightAware
02:29AM 19.3980 -67.4080 335° Northwest 503 579 36,000  Level FlightAware
02:30AM 19.5050 -67.4600 335° Northwest 502 578 36,000  Level FlightAware
02:30AM 19.5610 -67.4870 336° Northwest 502 578 36,000  Level FlightAware
02:31AM 19.6710 -67.5390 336° Northwest 501 577 36,000  Level FlightAware
02:32AM 19.7730 -67.5890 335° Northwest 502 578 36,000  Level FlightAware
02:32AM 19.8580 -67.6300 336° Northwest 500 575 36,000  Level FlightAware
02:33AM 19.9330 -67.6670 335° Northwest 499 574 36,000  Level FlightAware
02:34AM 20.0310 -67.7140 336° Northwest 498 573 36,000  Level FlightAware
02:34AM 20.1180 -67.7570 335° Northwest 498 573 36,000  Level FlightAware
02:35AM 20.2110 -67.8020 336° Northwest 498 573 36,000  Level FlightAware
02:36AM 20.2950 -67.8430 335° Northwest 498 573 36,000  Level FlightAware
02:36AM 20.3770 -67.8840 335° Northwest 499 574 36,000  Level FlightAware
02:37AM 20.4750 -67.9320 335° Northwest 499 574 36,000  Level FlightAware
02:38AM 20.5590 -67.9730 335° Northwest 499 574 36,000  Level FlightAware
02:39AM 20.6510 -68.0180 335° Northwest 502 578 36,000  Level FlightAware
02:39AM 20.7400 -68.0600 336° Northwest 503 579 36,000  Level FlightAware
02:40AM 20.8180 -68.0950 337° Northwest 503 579 36,000  Level FlightAware
02:41AM 20.9270 -68.1430 338° Northwest 501 577 36,000  Level FlightAware
02:41AM 20.9970 -68.1760 336° Northwest 502 578 36,000  Level FlightAware
02:42AM 21.0960 -68.2210 337° Northwest 502 578 36,000  Level FlightAware
02:43AM 21.1610 -68.2520 336° Northwest 502 578 36,000  Level FlightAware
02:43AM 21.2370 -68.2880 336° Northwest 502 578 36,000  Level FlightAware
02:44AM 21.3210 -68.3290 336° Northwest 502 578 36,000  Level FlightAware
02:45AM 21.3610 -68.3480 336° Northwest 502 578 36,000  Level FlightAware
02:46AM 21.4670 -68.3980 336° Northwest 502 578 36,000  Level FlightAware
02:46AM 21.5360 -68.4310 336° Northwest 502 578 36,000  Level FlightAware
02:47AM 21.6220 -68.4730 336° Northwest 502 578 36,000  Level FlightAware
02:48AM 21.6870 -68.5040 336° Northwest 502 578 36,000  Level FlightAware
02:49AM 21.7970 -68.5570 336° Northwest 502 578 36,000  Level FlightAware
02:49AM 21.8640 -68.5890 336° Northwest 502 578 36,000  Level FlightAware
02:50AM 21.9740 -68.6410 336° Northwest 502 578 36,000  Level FlightAware
02:51AM 22.0370 -68.6720 335° Northwest 502 578 36,000  Level FlightAware
02:52AM 22.1260 -68.7140 336° Northwest 502 578 36,000  Level FlightAware
02:53AM 22.4636 -68.8503 336° Northwest 503 579 36,000  Level Miami Center
02:54AM 22.5897 -68.9100 336° Northwest 498 573 36,000  Level Miami Center
02:55AM 22.7200 -68.9694 337° Northwest 498 573 36,000  Level Miami Center
02:56AM 22.8481 -69.0267 338° Northwest 498 573 36,000  Level Miami Center
02:57AM 22.9742 -69.0867 336° Northwest 493 567 36,000  Level Miami Center
02:58AM 23.1003 -69.1444 337° Northwest 495 570 36,000  Level Miami Center
02:59AM 23.2328 -69.2086 336° Northwest 495 570 36,000  Level Miami Center
03:00AM 23.3589 -69.2667 337° Northwest 495 570 36,000  Level Miami Center
03:01AM 23.4869 -69.3267 337° Northwest 495 570 36,000  Level Miami Center
03:02AM 23.6108 -69.3850 337° Northwest 495 570 36,000  Level Miami Center
03:03AM 23.7347 -69.4433 337° Northwest 487 560 36,000  Level Miami Center
03:04AM 23.8608 -69.5064 335° Northwest 487 560 36,000  Level Miami Center
03:05AM 23.9800 -69.5561 339° North 482 555 36,000  Level Miami Center
03:06AM 24.1022 -69.6194 335° Northwest 482 555 36,000  Level Miami Center
03:07AM 24.2217 -69.6783 336° Northwest 477 549 36,000  Level Miami Center
03:08AM 24.3433 -69.7306 339° North 467 537 36,000  Level Miami Center
03:09AM 24.4631 -69.7922 335° Northwest 467 537 36,000  Level Miami Center
03:10AM 24.5825 -69.8469 337° Northwest 467 537 36,000  Level Miami Center
03:11AM 24.6997 -69.9019 337° Northwest 467 537 36,000  Level Miami Center
03:12AM 24.8194 -69.9636 335° Northwest 467 537 36,000  Level Miami Center
03:13AM 24.9369 -70.0189 337° Northwest 467 537 36,000  Level Miami Center
03:14AM 25.0000 -70.0500 348° North 463 533 36,000  Level New York Oceanic (ODAPS)
03:17AM 25.5000 -70.1667 348° North 460 529 36,000  Level San Juan Center
03:20AM 25.7805 -70.2316 348° North 463 533 36,000  Level FlightAware Transoceanic
03:20AM 25.6383 -70.1947 350° North  Level Estimated
03:20AM 25.7000 -70.2167 348° North 462 532 36,000  Level New York Oceanic (ODAPS)
03:21AM 25.9105 -70.2621 348° North 463 533 36,000  Level FlightAware Transoceanic
03:22AM 26.0406 -70.2927 348° North 463 533 36,000  Level FlightAware Transoceanic
03:23AM 26.1706 -70.3233 348° North 463 533 36,000  Level FlightAware Transoceanic
03:27AM 26.7244 -70.4573 348° North 462 532 36,000  Level FlightAware Transoceanic
03:28AM 26.8525 -70.4876 348° North 462 532 36,000  Level FlightAware Transoceanic
03:29AM 26.9805 -70.5181 348° North 462 532 36,000  Level FlightAware Transoceanic
03:30AM 27.1085 -70.5486 348° North 462 532 36,000  Level FlightAware Transoceanic
03:31AM 27.2365 -70.5792 348° North 462 532 36,000  Level FlightAware Transoceanic
03:32AM 27.3645 -70.6098 348° North 462 532 36,000  Level FlightAware Transoceanic
03:33AM 27.4925 -70.6405 348° North 462 532 36,000  Level FlightAware Transoceanic
03:33AM 27.4333 -70.6167 348° North 458 527 36,000  Level New York Oceanic (ODAPS)
03:34AM 27.6205 -70.6713 348° North 462 532 36,000  Level FlightAware Transoceanic
03:35AM 27.7485 -70.7022 348° North 462 532 36,000  Level FlightAware Transoceanic
03:36AM 27.8765 -70.7331 348° North 462 532 36,000  Level FlightAware Transoceanic
03:37AM 28.0044 -70.7642 348° North 462 532 36,000  Level FlightAware Transoceanic
03:38AM 28.1324 -70.7952 348° North 462 532 36,000  Level FlightAware Transoceanic
03:39AM 28.2334 -70.8154 348° North 458 527 36,000  Level FlightAware Transoceanic
03:40AM 28.3668 -70.8488 348° North 458 527 36,000  Level FlightAware Transoceanic
03:41AM 28.5001 -70.8823 348° North 458 527 36,000  Level FlightAware Transoceanic
03:42AM 28.6334 -70.9159 348° North 458 527 36,000  Level FlightAware Transoceanic
03:43AM 28.7667 -70.9496 348° North 458 527 36,000  Level FlightAware Transoceanic
03:44AM 28.9000 -70.9833 348° North 458 527 36,000  Level FlightAware Transoceanic
03:44AM 28.8500 -70.9667 344° North 458 527 36,000  Level New York Oceanic (ODAPS)
03:45AM 29.0272 -71.0146 348° North 458 527 36,000  Level FlightAware Transoceanic
03:46AM 29.1545 -71.0459 348° North 458 527 36,000  Level FlightAware Transoceanic
03:47AM 29.2817 -71.0773 348° North 458 527 36,000  Level FlightAware Transoceanic
03:47AM 29.1500 -71.0333 348° North 458 527 36,000  Level New York Oceanic (ODAPS)
03:48AM 29.4089 -71.1088 348° North 458 527 36,000  Level FlightAware Transoceanic
03:49AM 29.5361 -71.1404 348° North 458 527 36,000  Level FlightAware Transoceanic
03:50AM 29.6633 -71.1720 348° North 458 527 36,000  Level FlightAware Transoceanic
03:51AM 29.6633 -71.1720 348° North 458 527 36,000  Level FlightAware Transoceanic
03:52AM 29.7905 -71.2038 348° North 458 527 36,000  Level FlightAware Transoceanic
03:53AM 29.9140 -71.2249 348° North 458 527 36,000  Level FlightAware Transoceanic
03:54AM 30.0413 -71.2571 348° North 458 527 36,000  Level FlightAware Transoceanic
03:55AM 30.1686 -71.2894 348° North 458 527 36,000  Level FlightAware Transoceanic
03:56AM 30.2958 -71.3218 348° North 458 527 36,000  Level FlightAware Transoceanic
03:57AM 30.4231 -71.3542 348° North 458 527 36,000  Level FlightAware Transoceanic
03:58AM 30.5504 -71.3868 348° North 458 527 36,000  Level FlightAware Transoceanic
03:59AM 30.6776 -71.4194 348° North 458 527 36,000  Level FlightAware Transoceanic
04:00AM 30.8049 -71.4521 348° North 458 527 36,000  Level FlightAware Transoceanic
04:01AM 30.8833 -71.4833 348° North 470 541 36,000 180 Level New York Oceanic (ODAPS)
04:08AM 31.8333 -71.7167 347° North 500 575 38,000 240 Climbing New York Oceanic (ODAPS)
04:09AM 31.9000 -71.7333 347° North 633 728 38,000  Level New York Oceanic (ODAPS)
04:11AM 32.0500 -71.7833 348° North 475 547 38,000  Level New York Oceanic (ODAPS)
04:21AM 32.6389 -73.4931 348° North 484 557 38,000 -60 Level New York Center
04:22AM 32.7564 -73.5414 341° North 479 551 37,900  Descending New York Center
04:23AM 32.8889 -73.5828 345° North 490 564 38,000  Climbing New York Center
04:24AM 33.0214 -73.6219 347° North 484 557 37,900  Descending New York Center
04:24AM 33.3000 -72.1167 347° North 696 801 38,000 60 Climbing New York Oceanic (ODAPS)
04:25AM 33.1581 -73.6589 347° North 483 556 38,000  Level New York Center
04:25AM 33.4667 -72.1667 348° North 664 764 38,000  Level New York Oceanic (ODAPS)
04:26AM 33.2758 -73.7028 348° North 474 545 38,000  Level New York Center
04:26AM 33.5333 -72.1833 357° North 217 250 38,000  Level New York Oceanic (ODAPS)
04:27AM 33.5500 -72.1833 357° North 622 716 38,000 -120 Level New York Oceanic (ODAPS)
04:28AM 33.5647 -73.7331 357° North 485 558 37,900  Descending New York Center
04:29AM 33.5500 -72.1833 357° North 588 677 38,000  Climbing New York Oceanic (ODAPS)
04:30AM 33.8428 -73.7008 357° North 487 560 37,900  Descending New York Center
04:31AM 33.9711 -73.6631 14° North 505 581 38,000  Climbing New York Center
04:32AM 33.6833 -72.1833 357° North 458 527 38,000  Level New York Oceanic (ODAPS)
04:32AM 34.1053 -73.6278 357° North 499 574 38,000  Level New York Center
04:33AM 33.9333 -72.2000 357° North 480 552 38,000  Level New York Oceanic (ODAPS)
04:34AM 34.3806 -73.5444 357° North 497 572 38,000  Level New York Center
04:35AM 34.5172 -73.5064 13° North 492 566 38,000 -60 Level New York Center
04:36AM 34.6494 -73.4681 13° North 487 560 37,900  Descending New York Center
04:37AM 34.7858 -73.4297 13° North 494 568 38,000  Climbing New York Center
04:38AM 34.9203 -73.3939 12° North 488 562 38,000 -60 Level New York Center
04:39AM 35.0589 -73.3478 15° North 493 567 37,900  Descending New York Center
04:40AM 35.1911 -73.3089 14° North 488 562 38,000  Climbing New York Center
04:41AM 35.3278 -73.2700 13° North 501 577 37,900  Descending New York Center
04:42AM 35.4811 -73.2239 14° North 500 575 38,000  Climbing New York Center
04:43AM 35.6239 -73.1800 14° North 507 583 38,000  Level New York Center
04:44AM 35.7561 -73.1381 14° North 507 583 38,000  Level New York Center
04:45AM 35.8925 -73.0986 13° North 507 583 38,000 -60 Level New York Center
04:46AM 36.0311 -73.0567 14° North 507 583 37,900  Descending New York Center
04:47AM 36.1694 -73.0119 15° North 507 583 38,000  Climbing New York Center
04:53AM 36.9497 -72.7672 15° North 524 603 38,000  Level FlightAware ADS-B
04:53AM 37.0211 -72.7444 14° North 522 601 38,000  Level FlightAware ADS-B
04:54AM 37.0976 -72.7200 14° North 521 600 38,000  Level FlightAware ADS-B
04:54AM 37.1708 -72.6967 14° North 521 600 38,000  Level FlightAware ADS-B
04:55AM 37.2592 -72.6687 14° North 521 600 38,000  Level FlightAware ADS-B
04:55AM 37.2941 -72.6611 10° North 511 588 38,000  Level FlightAware ADS-B
04:55AM 37.3224 -72.6584 North 505 581 38,000  Level FlightAware ADS-B
04:55AM 37.3628 -72.6597 359° North 494 568 38,000  Level FlightAware ADS-B
04:56AM 37.4006 -72.6670 351° North 483 556 38,000  Level FlightAware ADS-B
04:56AM 37.4202 -72.6730 346° North 476 548 38,000  Level FlightAware ADS-B
04:56AM 37.4609 -72.6915 340° North 466 536 38,000  Level FlightAware ADS-B
04:57AM 37.5222 -72.7294 334° Northwest 462 532 38,000  Level FlightAware ADS-B
04:57AM 37.5800 -72.7660 333° Northwest 463 533 38,000  Level FlightAware ADS-B
04:58AM 37.6378 -72.8025 333° Northwest 460 529 38,000  Level FlightAware ADS-B
04:58AM 37.6957 -72.8391 333° Northwest 458 527 38,000  Level FlightAware ADS-B
04:59AM 37.7362 -72.8629 335° Northwest 461 531 38,000  Level FlightAware ADS-B
04:59AM 37.7981 -72.8925 339° North 467 537 38,000  Level FlightAware ADS-B
05:00AM 37.8597 -72.9188 341° North 467 537 38,000  Level FlightAware ADS-B
05:00AM 37.9216 -72.9449 342° North 466 536 38,000  Level FlightAware ADS-B
05:01AM 37.9830 -72.9707 342° North 464 534 38,000 -840 Level FlightAware ADS-B
05:01AM 38.0437 -72.9961 342° North 456 525 37,200 -2,340 Descending FlightAware ADS-B
05:02AM 38.1050 -73.0224 341° North 471 542 35,700 -2,460 Descending FlightAware ADS-B
05:02AM 38.1687 -73.0498 341° North 479 551 34,700 -1,680 Descending FlightAware ADS-B
05:03AM 38.2336 -73.0776 341° North 480 552 34,000 -1,200 Descending FlightAware ADS-B
05:03AM 38.2969 -73.1048 341° North 478 550 33,500 -840 Descending FlightAware ADS-B
05:04AM 38.3599 -73.1317 341° North 471 542 33,200 -1,200 Descending FlightAware ADS-B
05:04AM 38.4395 -73.1658 341° North 464 534 32,100 -1,920 Descending FlightAware ADS-B
05:05AM 38.5570 -73.2160 342° North 447 514 30,100 -2,100 Descending FlightAware
05:06AM 38.5970 -73.2336 341° North 442 509 29,400 -2,280 Descending FlightAware ADS-B
05:06AM 38.6566 -73.2595 341° North 438 504 28,200 -2,040 Descending FlightAware ADS-B
05:07AM 38.7144 -73.2847 341° North 428 493 27,300 -1,680 Descending FlightAware ADS-B
05:07AM 38.7696 -73.3087 341° North 418 481 26,500 -1,920 Descending FlightAware ADS-B
05:08AM 38.8288 -73.3343 341° North 384 442 25,300 -2,280 Descending FlightAware ADS-B
05:09AM 38.9067 -73.3682 341° North 376 433 23,500 -2,280 Descending FlightAware ADS-B
05:09AM 38.9591 -73.3911 341° North 363 418 22,300 -2,220 Descending FlightAware ADS-B
05:10AM 39.0061 -73.4115 341° North 356 410 21,200 -1,980 Descending FlightAware ADS-B
05:10AM 39.0530 -73.4323 341° North 343 395 20,300 -1,920 Descending FlightAware ADS-B
05:11AM 39.1019 -73.4536 341° North 348 400 19,200 -1,980 Descending FlightAware ADS-B
05:11AM 39.1479 -73.4739 341° North 345 397 18,300 -1,680 Descending FlightAware ADS-B
05:12AM 39.1889 -73.4920 341° North 343 395 17,600 -1,680 Descending FlightAware ADS-B
05:12AM 39.2348 -73.5121 341° North 336 387 16,700 -1,800 Descending FlightAware ADS-B
05:13AM 39.2796 -73.5318 341° North 334 384 15,800 -1,560 Descending FlightAware ADS-B
05:13AM 39.3237 -73.5514 341° North 328 377 15,100 -1,500 Descending FlightAware ADS-B
05:14AM 39.3672 -73.5704 341° North 324 373 14,300 -1,620 Descending FlightAware ADS-B
05:14AM 39.4102 -73.5897 341° North 323 372 13,500 -1,620 Descending FlightAware ADS-B
05:15AM 39.4526 -73.6084 341° North 321 369 12,700 -1,620 Descending FlightAware ADS-B
05:15AM 39.4949 -73.6271 341° North 318 366 11,900 -1,620 Descending FlightAware ADS-B
05:16AM 39.5369 -73.6458 341° North 316 364 11,100 -1,140 Descending FlightAware ADS-B
05:16AM 39.5774 -73.6639 341° North 299 344 10,800 -840 Descending FlightAware ADS-B
05:17AM 39.6163 -73.6813 341° North 289 333 10,300 -1,080 Descending FlightAware ADS-B
05:17AM 39.6359 -73.6899 341° North 288 331 10,000 -1,260 Descending FlightAware ADS-B
05:17AM 39.6527 -73.6974 341° North 287 330 9,700 -1,260 Descending FlightAware ADS-B
05:17AM 39.6719 -73.7060 341° North 284 327 9,400 -1,140 Descending FlightAware ADS-B
05:18AM 39.6930 -73.7154 341° North 281 323 9,100 -1,020 Descending FlightAware ADS-B
05:18AM 39.7176 -73.7263 341° North 281 323 8,800 -540 Descending FlightAware ADS-B
05:18AM 39.7497 -73.7407 341° North 280 322 8,700 -180 Descending FlightAware ADS-B
05:19AM 39.7767 -73.7528 341° North 279 321 8,700  Level FlightAware ADS-B
05:19AM 39.8228 -73.7736 341° North 278 320 8,700  Level FlightAware ADS-B
05:20AM 39.8426 -73.7823 341° North 278 320 8,700  Level FlightAware ADS-B
05:20AM 39.8613 -73.7908 341° North 278 320 8,700  Level FlightAware ADS-B
05:20AM 39.8800 -73.7992 341° North 279 321 8,700  Level FlightAware ADS-B
05:20AM 39.8986 -73.8075 341° North 280 322 8,700  Level FlightAware ADS-B
05:21AM 39.9179 -73.8162 341° North 279 321 8,700  Level FlightAware ADS-B
05:21AM 39.9362 -73.8245 341° North 279 321 8,700  Level FlightAware ADS-B
05:21AM 39.9591 -73.8347 341° North 280 322 8,700  Level FlightAware ADS-B
05:22AM 39.9782 -73.8434 341° North 281 323 8,700  Level FlightAware ADS-B
05:22AM 39.9903 -73.8485 342° North 279 321 8,700  Level FlightAware ADS-B
05:22AM 39.9955 -73.8498 349° North 279 321 8,700  Level FlightAware ADS-B
05:22AM 40.0036 -73.8504 357° North 280 322 8,700  Level FlightAware ADS-B
05:22AM 40.0079 -73.8499 North 282 325 8,700  Level FlightAware ADS-B
05:22AM 40.0146 -73.8480 12° North 284 327 8,700  Level FlightAware ADS-B
05:22AM 40.0207 -73.8451 20° North 286 329 8,700  Level FlightAware ADS-B
05:22AM 40.0250 -73.8425 25° Northeast 287 330 8,700  Level FlightAware ADS-B
05:22AM 40.0331 -73.8369 28° Northeast 288 331 8,700  Level FlightAware ADS-B
05:23AM 40.0510 -73.8236 30° Northeast 289 333 8,700 -240 Level FlightAware ADS-B
05:23AM 40.0707 -73.8091 29° Northeast 288 331 8,600 -1,020 Descending FlightAware ADS-B
05:23AM 40.0876 -73.7969 29° Northeast 289 333 8,200 -1,680 Descending FlightAware ADS-B
05:23AM 40.1052 -73.7845 28° Northeast 285 328 7,800 -1,740 Descending FlightAware ADS-B
05:24AM 40.1245 -73.7709 28° Northeast 279 321 7,300 -1,980 Descending FlightAware ADS-B
05:24AM 40.1426 -73.7583 28° Northeast 271 312 6,700 -2,460 Descending FlightAware ADS-B
05:24AM 40.1731 -73.7369 28° Northeast 268 308 5,500 -2,700 Descending FlightAware ADS-B
05:25AM 40.2193 -73.7053 28° Northeast 265 305 3,600 -2,580 Descending FlightAware ADS-B
05:25AM 40.2410 -73.6904 28° Northeast 265 305 2,800 -900 Descending FlightAware ADS-B
05:26AM 40.2470 -73.6860 29° Northeast 268 308 2,700 -960 Descending FlightAware
05:27AM 40.3160 -73.6390 27° Northeast 254 292 1,700 -1,440 Descending FlightAware
05:27AM 40.3320 -73.6280 28° Northeast 254 292 1,700  Level FlightAware
05:27AM 40.3600 -73.6110 25° Northeast 249 287 1,700  Level FlightAware
05:28AM 40.3900 -73.6040 10° North 219 252 1,700  Level FlightAware
05:28AM 40.4060 -73.6010 North 210 242 1,700  Level FlightAware
05:28AM 40.4180 -73.5990 North 210 242 1,700  Level FlightAware
05:29AM 40.4560 -73.6140 343° North 207 238 1,700  Level FlightAware
05:29AM 40.4800 -73.6260 339° North 208 239 1,700  Level FlightAware
05:30AM 40.5140 -73.6430 339° North 199 229 1,700  Level FlightAware
05:30AM 40.5260 -73.6500 336° Northwest 184 212 1,700  Level FlightAware
05:31AM 40.5450 -73.6590 340° North 182 209 1,700 -120 Level FlightAware
05:31AM 40.5720 -73.6780 332° Northwest 178 205 1,600 -480 Descending FlightAware
05:32AM 40.5880 -73.6980 316° Northwest 150 173 1,200 -780 Descending FlightAware
05:32AM 40.6070 -73.7250 313° West 148 170 700 -720 Descending FlightAware
05:33AM 40.6110 -73.7350 298° West 142 163 600 -780 Descending FlightAware
05:33AM 40.6210 -73.7560 302° West 144 166 200 -840 Descending FlightAware
05:34AM 40.6310 -73.7780 301° West 147 169 -480 Descending FlightAware
05:34AM 40.6360 -73.7900 299° West 145 167  Level FlightAware
05:34AM 40.6420 -73.8020 303° West 72 83  Level FlightAware
05:35AM 40.6430 -73.8040 303° West 25 29  Level FlightAware
05:35AM 40.6430 -73.8050 270° West 25 29  Level FlightAware
05:36AM 40.6430 -73.8010 90° East 16 18  Level FlightAware